CYHUCYRQ

Guest
Details From CYHU - St Hubert
To CYRQ - TROIS RIVIERES
Flight Number -
Tags generated
Created
Modified
Stats Distance 60 nm / 111 km
Max Altitude 6,000 ft / 1,829 m
Waypoints 3
Social Downloads 0
Likes 0
Share VATSIM

Download

Looking for another format? Having issues loading an existing format? Contact us
Advertisement - Login to hide

Notes

Basic altitude profile: - Ascent Rate: 2500ft/min - Ascent Speed: 250kts - Cruise Altitude: 35000ft - Cruise Speed: 420kts - Descent Rate: 1500ft/min - Descent Speed: 250kts

Route

CYHU MAIRE CYRQ

ID Type Via Altitude Latitude Longitude Leg Dist Tot Dist Heading (true) Name
O CYHU APT - 0 ft / 0 m 45.51430˚ -73.41635˚ - 0 nm - St Hubert
MAIRE FIX - 6,000 ft / 1,829 m 45.70828˚ -73.12375˚ 16 nm 16 nm 46° / 47° -
O CYRQ APT - 0 ft / 0 m 46.35274˚ -72.67944˚ 42 nm 59 nm 25° / 26° TROIS RIVIERES

Altitude Profile

Advertisement - Login to hide

CYHU

Details ICAO CYHU (YHU)
Name St Hubert
Region Canada
Timezone America/Montreal (UTC-5.0)
Stats Elevation 90 ft / 27 m (AMSL)
Location 45.514297° -73.416351°
Runways 3
Magnetic Variation 14.499° W

METAR

CYHU 162100Z AUTO 30003KT 9SM OVC037 M09/M12 A3000 RMK SLP162

Decode

TAF

TAF CYHU 161738Z 1618/1718 30007KT P6SM SCT015 BKN030 TEMPO 1618/1620 4SM -SN BKN015 OVC030 BECMG 1618/1620 25012KT FM162000 25012KT P6SM BKN025 TEMPO 1620/1622 BKN020 BECMG 1700/1702 25006KT FM170600 03005KT P6SM BKN025 RMK FCST BASED ON AUTO OBS. NXT FCST BY 170000Z

Decode

Departure Runways

ID Width Length Bearing (true) Bearing (mag) Surface Threshold Offset Overrun Length
06L 150 ft / 46 m 7,870 ft / 2,399 m 46.95° 61.45° Asphalt 1,100 ft / 335 m 0 ft / 0 m
06R 100 ft / 30 m 3,874 ft / 1,181 m 47.16° 61.66° Asphalt 0 ft / 0 m 0 ft / 0 m
10 150 ft / 46 m 2,787 ft / 849 m 83.75° 98.25° Asphalt 0 ft / 0 m 0 ft / 0 m
24L 100 ft / 30 m 3,874 ft / 1,181 m 227.16° 241.66° Asphalt 0 ft / 0 m 0 ft / 0 m
24R 150 ft / 46 m 7,870 ft / 2,399 m 226.97° 241.47° Asphalt 0 ft / 0 m 90 ft / 27 m
28 150 ft / 46 m 2,787 ft / 849 m 263.75° 278.25° Asphalt 0 ft / 0 m 0 ft / 0 m

CYRQ

Details ICAO CYRQ (YRQ)
Name TROIS RIVIERES
Region Canada
Timezone America/Montreal (UTC-5.0)
Stats Elevation 199 ft / 61 m (AMSL)
Location 46.352741° -72.679441°
Runways 1
Magnetic Variation 15.121° W

METAR

CYRQ 162100Z AUTO 00000KT 9SM CLR M12/M16 A2997 RMK SLP156

Decode

TAF

TAF CYRQ 161938Z 1620/1708 VRB03KT P6SM OVC040 TEMPO 1620/1621 2SM -SN BKN015 OVC050 FM162100 31008KT P6SM OVC030 TEMPO 1621/1702 P6SM -SHSN OVC020 FM170200 31006KT P6SM BKN040 TEMPO 1702/1708 SCT040 RMK FCST BASED ON AUTO OBS. NXT FCST BY 170200Z

Decode

Destination Runways

ID Width Length Bearing (true) Bearing (mag) Surface Threshold Offset Overrun Length
05 150 ft / 46 m 6,001 ft / 1,829 m 31.33° 46.45° Asphalt 0 ft / 0 m 300 ft / 91 m
23 150 ft / 46 m 6,001 ft / 1,829 m 211.34° 226.46° Asphalt 0 ft / 0 m 300 ft / 91 m

Popular Alternatives